sensor_id;sensor_type;location;lat;lon;timestamp;temperature;humidity
35445;DHT22;21562;49.476;6.086;2023-04-01T00:00:52;9.60;99.90
35445;DHT22;21562;49.476;6.086;2023-04-01T00:03:19;9.60;99.90
35445;DHT22;21562;49.476;6.086;2023-04-01T00:05:46;9.60;99.90
35445;DHT22;21562;49.476;6.086;2023-04-01T00:08:12;9.60;99.90
35445;DHT22;21562;49.476;6.086;2023-04-01T00:10:38;9.60;99.90
35445;DHT22;21562;49.476;6.086;2023-04-01T00:13:03;9.70;99.90
35445;DHT22;21562;49.476;6.086;2023-04-01T00:15:29;9.70;99.90
35445;DHT22;21562;49.476;6.086;2023-04-01T00:17:55;9.50;99.90
35445;DHT22;21562;49.476;6.086;2023-04-01T00:20:21;9.40;99.90
35445;DHT22;21562;49.476;6.086;2023-04-01T00:22:47;9.50;99.90
35445;DHT22;21562;49.476;6.086;2023-04-01T00:25:13;9.50;99.90
35445;DHT22;21562;49.476;6.086;2023-04-01T00:27:40;9.60;99.90
35445;DHT22;21562;49.476;6.086;2023-04-01T00:30:06;9.60;99.90
35445;DHT22;21562;49.476;6.086;2023-04-01T00:32:32;9.60;99.90
35445;DHT22;21562;49.476;6.086;2023-04-01T00:34:58;9.60;99.90
35445;DHT22;21562;49.476;6.086;2023-04-01T00:37:25;9.70;99.90
35445;DHT22;21562;49.476;6.086;2023-04-01T00:39:51;9.70;99.90
35445;DHT22;21562;49.476;6.086;2023-04-01T00:42:17;9.60;99.90
35445;DHT22;21562;49.476;6.086;2023-04-01T00:44:47;9.60;99.90
35445;DHT22;21562;49.476;6.086;2023-04-01T00:47:15;9.60;99.90
35445;DHT22;21562;49.476;6.086;2023-04-01T00:49:44;9.50;99.90
35445;DHT22;21562;49.476;6.086;2023-04-01T00:52:13;9.40;99.90
35445;DHT22;21562;49.476;6.086;2023-04-01T00:54:41;9.50;99.90
35445;DHT22;21562;49.476;6.086;2023-04-01T00:57:23;9.50;99.90
35445;DHT22;21562;49.476;6.086;2023-04-01T00:59:53;9.50;99.90
35445;DHT22;21562;49.476;6.086;2023-04-01T01:02:20;9.50;99.90
35445;DHT22;21562;49.476;6.086;2023-04-01T01:04:45;9.50;99.90
35445;DHT22;21562;49.476;6.086;2023-04-01T01:07:25;9.50;99.90
35445;DHT22;21562;49.476;6.086;2023-04-01T01:17:47;9.60;99.90
35445;DHT22;21562;49.476;6.086;2023-04-01T01:33:53;9.60;99.90
35445;DHT22;21562;49.476;6.086;2023-04-01T01:36:28;9.60;99.90
35445;DHT22;21562;49.476;6.086;2023-04-01T01:38:56;9.50;99.90
35445;DHT22;21562;49.476;6.086;2023-04-01T01:41:23;9.60;99.90
35445;DHT22;21562;49.476;6.086;2023-04-01T01:43:53;9.70;99.90
35445;DHT22;21562;49.476;6.086;2023-04-01T01:46:23;9.60;99.90
35445;DHT22;21562;49.476;6.086;2023-04-01T01:48:50;9.70;99.90
35445;DHT22;21562;49.476;6.086;2023-04-01T01:51:18;9.60;99.90
35445;DHT22;21562;49.476;6.086;2023-04-01T01:53:44;9.70;99.90
35445;DHT22;21562;49.476;6.086;2023-04-01T01:56:11;9.50;99.90
35445;DHT22;21562;49.476;6.086;2023-04-01T01:58:47;9.50;99.90
35445;DHT22;21562;49.476;6.086;2023-04-01T02:01:24;9.50;99.90
35445;DHT22;21562;49.476;6.086;2023-04-01T02:03:51;9.70;99.90
35445;DHT22;21562;49.476;6.086;2023-04-01T02:06:20;9.50;99.90
35445;DHT22;21562;49.476;6.086;2023-04-01T02:08:59;9.40;99.90
35445;DHT22;21562;49.476;6.086;2023-04-01T02:11:42;9.40;99.90
35445;DHT22;21562;49.476;6.086;2023-04-01T02:14:11;9.30;99.90
35445;DHT22;21562;49.476;6.086;2023-04-01T02:16:57;9.20;99.90
35445;DHT22;21562;49.476;6.086;2023-04-01T02:19:38;9.30;99.90
35445;DHT22;21562;49.476;6.086;2023-04-01T02:22:08;9.30;99.90
35445;DHT22;21562;49.476;6.086;2023-04-01T02:24:35;9.20;99.90
35445;DHT22;21562;49.476;6.086;2023-04-01T02:27:02;9.10;99.90
35445;DHT22;21562;49.476;6.086;2023-04-01T02:29:28;9.20;99.90
35445;DHT22;21562;49.476;6.086;2023-04-01T02:31:54;9.30;99.90
35445;DHT22;21562;49.476;6.086;2023-04-01T02:34:21;9.30;99.90
35445;DHT22;21562;49.476;6.086;2023-04-01T02:36:49;9.30;99.90
35445;DHT22;21562;49.476;6.086;2023-04-01T02:39:16;9.30;99.90
35445;DHT22;21562;49.476;6.086;2023-04-01T02:41:44;9.30;99.90
35445;DHT22;21562;49.476;6.086;2023-04-01T02:44:11;9.20;99.90
35445;DHT22;21562;49.476;6.086;2023-04-01T02:46:38;9.10;99.90
35445;DHT22;21562;49.476;6.086;2023-04-01T02:49:04;9.10;99.90
35445;DHT22;21562;49.476;6.086;2023-04-01T02:51:30;9.10;99.90
35445;DHT22;21562;49.476;6.086;2023-04-01T02:53:55;9.10;99.90
35445;DHT22;21562;49.476;6.086;2023-04-01T02:56:21;9.00;99.90
35445;DHT22;21562;49.476;6.086;2023-04-01T02:58:47;9.10;99.90
35445;DHT22;21562;49.476;6.086;2023-04-01T03:01:13;9.10;99.90
35445;DHT22;21562;49.476;6.086;2023-04-01T03:03:38;9.10;99.90
35445;DHT22;21562;49.476;6.086;2023-04-01T03:06:13;9.00;99.90
35445;DHT22;21562;49.476;6.086;2023-04-01T03:08:39;9.10;99.90
35445;DHT22;21562;49.476;6.086;2023-04-01T03:11:05;9.00;99.90
35445;DHT22;21562;49.476;6.086;2023-04-01T03:13:31;9.00;99.90
35445;DHT22;21562;49.476;6.086;2023-04-01T03:15:57;8.90;99.90
35445;DHT22;21562;49.476;6.086;2023-04-01T03:18:23;8.80;99.90
35445;DHT22;21562;49.476;6.086;2023-04-01T03:20:49;8.80;99.90
35445;DHT22;21562;49.476;6.086;2023-04-01T03:23:15;8.90;99.90
35445;DHT22;21562;49.476;6.086;2023-04-01T03:25:42;8.90;99.90
35445;DHT22;21562;49.476;6.086;2023-04-01T03:28:08;8.90;99.90
35445;DHT22;21562;49.476;6.086;2023-04-01T03:30:34;8.80;99.90
35445;DHT22;21562;49.476;6.086;2023-04-01T03:33:00;8.80;99.90
35445;DHT22;21562;49.476;6.086;2023-04-01T03:35:26;8.90;99.90
35445;DHT22;21562;49.476;6.086;2023-04-01T03:37:52;9.00;99.90
35445;DHT22;21562;49.476;6.086;2023-04-01T03:40:18;9.00;99.90
35445;DHT22;21562;49.476;6.086;2023-04-01T03:42:44;9.00;99.90
35445;DHT22;21562;49.476;6.086;2023-04-01T03:45:10;9.00;99.90
35445;DHT22;21562;49.476;6.086;2023-04-01T03:47:37;9.00;99.90
35445;DHT22;21562;49.476;6.086;2023-04-01T03:50:04;9.00;99.90
35445;DHT22;21562;49.476;6.086;2023-04-01T03:52:30;9.10;99.90
35445;DHT22;21562;49.476;6.086;2023-04-01T03:54:56;9.00;99.90
35445;DHT22;21562;49.476;6.086;2023-04-01T03:57:22;9.00;99.90
35445;DHT22;21562;49.476;6.086;2023-04-01T03:59:47;9.10;99.90
35445;DHT22;21562;49.476;6.086;2023-04-01T04:02:13;9.10;99.90
35445;DHT22;21562;49.476;6.086;2023-04-01T04:04:38;9.00;99.90
35445;DHT22;21562;49.476;6.086;2023-04-01T04:07:04;9.00;99.90
35445;DHT22;21562;49.476;6.086;2023-04-01T04:09:30;9.10;99.90
35445;DHT22;21562;49.476;6.086;2023-04-01T04:11:56;9.00;99.90
35445;DHT22;21562;49.476;6.086;2023-04-01T04:14:23;9.00;99.90
35445;DHT22;21562;49.476;6.086;2023-04-01T04:16:48;9.00;99.90
35445;DHT22;21562;49.476;6.086;2023-04-01T04:19:14;8.90;99.90
35445;DHT22;21562;49.476;6.086;2023-04-01T04:21:41;8.90;99.90
35445;DHT22;21562;49.476;6.086;2023-04-01T04:24:07;8.80;99.90
35445;DHT22;21562;49.476;6.086;2023-04-01T04:26:33;8.90;99.90
35445;DHT22;21562;49.476;6.086;2023-04-01T04:28:59;8.90;99.90
35445;DHT22;21562;49.476;6.086;2023-04-01T04:31:25;8.80;99.90
35445;DHT22;21562;49.476;6.086;2023-04-01T04:33:52;8.90;99.90
35445;DHT22;21562;49.476;6.086;2023-04-01T04:36:18;8.90;99.90
35445;DHT22;21562;49.476;6.086;2023-04-01T04:38:44;9.00;99.90
35445;DHT22;21562;49.476;6.086;2023-04-01T04:41:11;9.00;99.90
35445;DHT22;21562;49.476;6.086;2023-04-01T04:43:39;9.00;99.90
35445;DHT22;21562;49.476;6.086;2023-04-01T04:46:09;9.10;99.90
35445;DHT22;21562;49.476;6.086;2023-04-01T04:48:35;9.00;99.90
35445;DHT22;21562;49.476;6.086;2023-04-01T04:51:01;9.10;99.90
35445;DHT22;21562;49.476;6.086;2023-04-01T04:53:27;9.10;99.90
35445;DHT22;21562;49.476;6.086;2023-04-01T04:55:53;9.20;99.90
35445;DHT22;21562;49.476;6.086;2023-04-01T04:58:19;9.10;99.90
35445;DHT22;21562;49.476;6.086;2023-04-01T05:00:45;9.00;99.90
35445;DHT22;21562;49.476;6.086;2023-04-01T05:03:12;9.10;99.90
35445;DHT22;21562;49.476;6.086;2023-04-01T05:05:38;9.10;99.90
35445;DHT22;21562;49.476;6.086;2023-04-01T05:08:04;9.00;99.90
35445;DHT22;21562;49.476;6.086;2023-04-01T05:10:30;9.10;99.90
35445;DHT22;21562;49.476;6.086;2023-04-01T05:12:57;9.20;99.90
35445;DHT22;21562;49.476;6.086;2023-04-01T05:15:22;9.00;99.90
35445;DHT22;21562;49.476;6.086;2023-04-01T05:17:48;9.00;99.90
35445;DHT22;21562;49.476;6.086;2023-04-01T05:20:14;9.10;99.90
35445;DHT22;21562;49.476;6.086;2023-04-01T05:22:40;9.00;99.90
35445;DHT22;21562;49.476;6.086;2023-04-01T05:25:06;9.10;99.90
35445;DHT22;21562;49.476;6.086;2023-04-01T05:27:32;9.10;99.90
35445;DHT22;21562;49.476;6.086;2023-04-01T05:29:58;9.10;99.90
35445;DHT22;21562;49.476;6.086;2023-04-01T05:32:24;9.10;99.90
35445;DHT22;21562;49.476;6.086;2023-04-01T05:34:53;9.20;99.90
35445;DHT22;21562;49.476;6.086;2023-04-01T05:37:19;9.10;99.90
35445;DHT22;21562;49.476;6.086;2023-04-01T05:39:45;9.10;99.90
35445;DHT22;21562;49.476;6.086;2023-04-01T05:42:11;9.20;99.90
35445;DHT22;21562;49.476;6.086;2023-04-01T05:44:37;9.30;99.90
35445;DHT22;21562;49.476;6.086;2023-04-01T05:47:04;9.10;99.90
35445;DHT22;21562;49.476;6.086;2023-04-01T05:49:30;9.10;99.90
35445;DHT22;21562;49.476;6.086;2023-04-01T05:51:56;9.10;99.90
35445;DHT22;21562;49.476;6.086;2023-04-01T05:54:22;9.20;99.90
35445;DHT22;21562;49.476;6.086;2023-04-01T05:56:48;9.20;99.90
35445;DHT22;21562;49.476;6.086;2023-04-01T05:59:14;9.20;99.90
35445;DHT22;21562;49.476;6.086;2023-04-01T06:01:40;9.20;99.90
35445;DHT22;21562;49.476;6.086;2023-04-01T06:04:06;9.20;99.90
35445;DHT22;21562;49.476;6.086;2023-04-01T06:06:32;9.30;99.90
35445;DHT22;21562;49.476;6.086;2023-04-01T06:09:12;9.20;99.90
35445;DHT22;21562;49.476;6.086;2023-04-01T06:15:10;9.30;99.90
35445;DHT22;21562;49.476;6.086;2023-04-01T06:20:52;9.30;99.90
35445;DHT22;21562;49.476;6.086;2023-04-01T06:26:14;9.40;99.90
35445;DHT22;21562;49.476;6.086;2023-04-01T06:29:12;9.30;99.90
35445;DHT22;21562;49.476;6.086;2023-04-01T06:32:12;9.40;99.90
35445;DHT22;21562;49.476;6.086;2023-04-01T06:35:12;9.50;99.90
35445;DHT22;21562;49.476;6.086;2023-04-01T06:37:54;9.50;99.90
35445;DHT22;21562;49.476;6.086;2023-04-01T06:54:33;9.70;99.90
35445;DHT22;21562;49.476;6.086;2023-04-01T06:57:26;9.60;99.90
35445;DHT22;21562;49.476;6.086;2023-04-01T06:59:55;9.60;99.90
35445;DHT22;21562;49.476;6.086;2023-04-01T07:02:39;9.60;99.90
35445;DHT22;21562;49.476;6.086;2023-04-01T07:05:07;9.50;99.90
35445;DHT22;21562;49.476;6.086;2023-04-01T07:07:41;9.60;99.90
35445;DHT22;21562;49.476;6.086;2023-04-01T07:10:19;9.50;99.90
35445;DHT22;21562;49.476;6.086;2023-04-01T07:12:53;9.60;99.90
35445;DHT22;21562;49.476;6.086;2023-04-01T07:15:21;9.70;99.90
35445;DHT22;21562;49.476;6.086;2023-04-01T07:17:57;9.70;99.90
35445;DHT22;21562;49.476;6.086;2023-04-01T07:20:32;9.60;99.90
35445;DHT22;21562;49.476;6.086;2023-04-01T07:23:01;9.70;99.90
35445;DHT22;21562;49.476;6.086;2023-04-01T07:25:30;9.80;99.90
35445;DHT22;21562;49.476;6.086;2023-04-01T07:28:00;9.80;99.90
35445;DHT22;21562;49.476;6.086;2023-04-01T07:30:33;9.70;99.90
35445;DHT22;21562;49.476;6.086;2023-04-01T07:33:05;9.70;99.90
35445;DHT22;21562;49.476;6.086;2023-04-01T07:35:44;9.70;99.90
35445;DHT22;21562;49.476;6.086;2023-04-01T07:38:31;9.80;99.90
35445;DHT22;21562;49.476;6.086;2023-04-01T07:41:15;9.80;99.90
35445;DHT22;21562;49.476;6.086;2023-04-01T07:46:15;9.80;99.90
35445;DHT22;21562;49.476;6.086;2023-04-01T07:48:47;9.90;99.90
35445;DHT22;21562;49.476;6.086;2023-04-01T08:05:29;9.90;99.90
35445;DHT22;21562;49.476;6.086;2023-04-01T08:13:47;9.90;99.90
35445;DHT22;21562;49.476;6.086;2023-04-01T08:16:21;9.90;99.90
35445;DHT22;21562;49.476;6.086;2023-04-01T08:19:05;9.90;99.90
35445;DHT22;21562;49.476;6.086;2023-04-01T08:21:42;9.90;99.90
35445;DHT22;21562;49.476;6.086;2023-04-01T08:24:29;9.90;99.90
35445;DHT22;21562;49.476;6.086;2023-04-01T08:27:00;10.00;99.90
35445;DHT22;21562;49.476;6.086;2023-04-01T08:29:51;10.10;99.90
35445;DHT22;21562;49.476;6.086;2023-04-01T08:32:58;9.90;99.90
35445;DHT22;21562;49.476;6.086;2023-04-01T08:35:45;9.90;99.90
35445;DHT22;21562;49.476;6.086;2023-04-01T08:38:16;10.10;99.90
35445;DHT22;21562;49.476;6.086;2023-04-01T08:57:41;10.20;99.90
35445;DHT22;21562;49.476;6.086;2023-04-01T09:00:31;10.30;99.90
35445;DHT22;21562;49.476;6.086;2023-04-01T09:14:22;10.40;99.90
35445;DHT22;21562;49.476;6.086;2023-04-01T09:21:50;10.40;99.90
35445;DHT22;21562;49.476;6.086;2023-04-01T09:27:18;10.40;99.90
35445;DHT22;21562;49.476;6.086;2023-04-01T09:35:48;10.30;99.90
35445;DHT22;21562;49.476;6.086;2023-04-01T09:46:47;10.60;99.90
35445;DHT22;21562;49.476;6.086;2023-04-01T09:49:35;10.60;99.90
35445;DHT22;21562;49.476;6.086;2023-04-01T10:24:24;10.70;99.90
35445;DHT22;21562;49.476;6.086;2023-04-01T10:27:10;10.60;99.90
35445;DHT22;21562;49.476;6.086;2023-04-01T10:30:58;10.70;99.90
35445;DHT22;21562;49.476;6.086;2023-04-01T10:42:05;10.60;99.90
35445;DHT22;21562;49.476;6.086;2023-04-01T10:45:01;10.40;99.90
35445;DHT22;21562;49.476;6.086;2023-04-01T10:56:39;10.40;99.90
35445;DHT22;21562;49.476;6.086;2023-04-01T10:59:15;10.50;99.90
35445;DHT22;21562;49.476;6.086;2023-04-01T11:04:51;10.60;99.90
35445;DHT22;21562;49.476;6.086;2023-04-01T11:16:12;10.70;99.90
35445;DHT22;21562;49.476;6.086;2023-04-01T11:27:13;11.10;99.90
35445;DHT22;21562;49.476;6.086;2023-04-01T11:43:02;10.70;99.90
35445;DHT22;21562;49.476;6.086;2023-04-01T11:45:36;10.70;99.90
35445;DHT22;21562;49.476;6.086;2023-04-01T11:59:14;10.60;99.90
35445;DHT22;21562;49.476;6.086;2023-04-01T12:03:05;10.60;99.90
35445;DHT22;21562;49.476;6.086;2023-04-01T12:11:06;10.50;99.90
35445;DHT22;21562;49.476;6.086;2023-04-01T12:13:42;10.50;99.90
35445;DHT22;21562;49.476;6.086;2023-04-01T12:41:09;10.50;99.90
35445;DHT22;21562;49.476;6.086;2023-04-01T12:43:58;10.40;99.90
35445;DHT22;21562;49.476;6.086;2023-04-01T12:52:45;10.40;99.90
35445;DHT22;21562;49.476;6.086;2023-04-01T12:55:42;10.50;99.90
35445;DHT22;21562;49.476;6.086;2023-04-01T13:04:12;10.70;99.90
35445;DHT22;21562;49.476;6.086;2023-04-01T13:09:20;10.40;99.90
35445;DHT22;21562;49.476;6.086;2023-04-01T13:23:04;10.40;99.90
35445;DHT22;21562;49.476;6.086;2023-04-01T13:33:48;10.70;99.90
35445;DHT22;21562;49.476;6.086;2023-04-01T13:36:28;10.70;99.90
35445;DHT22;21562;49.476;6.086;2023-04-01T13:40:18;11.00;99.90
35445;DHT22;21562;49.476;6.086;2023-04-01T13:45:15;10.70;99.90
35445;DHT22;21562;49.476;6.086;2023-04-01T13:58:38;10.50;99.90
35445;DHT22;21562;49.476;6.086;2023-04-01T14:12:17;9.90;99.90
35445;DHT22;21562;49.476;6.086;2023-04-01T14:15:35;10.00;99.90
35445;DHT22;21562;49.476;6.086;2023-04-01T14:18:59;10.10;99.90
35445;DHT22;21562;49.476;6.086;2023-04-01T14:27:19;10.20;99.90
35445;DHT22;21562;49.476;6.086;2023-04-01T14:35:38;10.20;99.90
35445;DHT22;21562;49.476;6.086;2023-04-01T14:47:16;10.30;99.90
35445;DHT22;21562;49.476;6.086;2023-04-01T14:50:02;10.10;99.90
35445;DHT22;21562;49.476;6.086;2023-04-01T14:52:36;10.10;99.90
35445;DHT22;21562;49.476;6.086;2023-04-01T15:14:49;10.10;99.90
35445;DHT22;21562;49.476;6.086;2023-04-01T15:17:50;10.10;99.90
35445;DHT22;21562;49.476;6.086;2023-04-01T15:34:11;10.20;99.90
35445;DHT22;21562;49.476;6.086;2023-04-01T15:39:30;10.30;99.90
35445;DHT22;21562;49.476;6.086;2023-04-01T15:42:16;10.20;99.90
35445;DHT22;21562;49.476;6.086;2023-04-01T15:55:50;10.30;99.90
35445;DHT22;21562;49.476;6.086;2023-04-01T16:00:53;10.30;99.90
35445;DHT22;21562;49.476;6.086;2023-04-01T16:24:33;10.10;99.90
35445;DHT22;21562;49.476;6.086;2023-04-01T16:27:26;10.30;99.90
35445;DHT22;21562;49.476;6.086;2023-04-01T16:32:42;10.10;99.90
35445;DHT22;21562;49.476;6.086;2023-04-01T16:35:52;10.30;99.90
35445;DHT22;21562;49.476;6.086;2023-04-01T16:38:26;10.30;99.90
35445;DHT22;21562;49.476;6.086;2023-04-01T16:43:44;10.20;99.90
35445;DHT22;21562;49.476;6.086;2023-04-01T16:46:44;10.30;99.90
35445;DHT22;21562;49.476;6.086;2023-04-01T16:54:43;10.10;99.90
35445;DHT22;21562;49.476;6.086;2023-04-01T16:59:44;10.20;99.90
35445;DHT22;21562;49.476;6.086;2023-04-01T17:02:14;10.10;99.90
35445;DHT22;21562;49.476;6.086;2023-04-01T17:04:48;10.20;99.90
35445;DHT22;21562;49.476;6.086;2023-04-01T17:10:32;10.40;99.90
35445;DHT22;21562;49.476;6.086;2023-04-01T17:20:43;10.20;99.90
35445;DHT22;21562;49.476;6.086;2023-04-01T17:26:16;10.40;99.90
35445;DHT22;21562;49.476;6.086;2023-04-01T17:29:24;10.30;99.90
35445;DHT22;21562;49.476;6.086;2023-04-01T17:40:07;10.00;99.90
35445;DHT22;21562;49.476;6.086;2023-04-01T17:43:02;9.90;99.90
35445;DHT22;21562;49.476;6.086;2023-04-01T17:45:42;9.90;99.90
35445;DHT22;21562;49.476;6.086;2023-04-01T17:48:49;9.80;99.90
35445;DHT22;21562;49.476;6.086;2023-04-01T17:51:51;9.80;99.90
35445;DHT22;21562;49.476;6.086;2023-04-01T17:54:37;9.90;99.90
35445;DHT22;21562;49.476;6.086;2023-04-01T18:00:03;10.00;99.90
35445;DHT22;21562;49.476;6.086;2023-04-01T18:17:20;9.90;99.90
35445;DHT22;21562;49.476;6.086;2023-04-01T18:27:44;9.90;99.90
35445;DHT22;21562;49.476;6.086;2023-04-01T18:30:27;10.10;99.90
35445;DHT22;21562;49.476;6.086;2023-04-01T18:36:51;10.10;99.90
35445;DHT22;21562;49.476;6.086;2023-04-01T18:38:57;9.90;99.90
35445;DHT22;21562;49.476;6.086;2023-04-01T18:41:50;9.80;99.90
35445;DHT22;21562;49.476;6.086;2023-04-01T18:47:38;10.00;99.90
35445;DHT22;21562;49.476;6.086;2023-04-01T18:53:24;10.10;99.90
35445;DHT22;21562;49.476;6.086;2023-04-01T18:55:59;10.10;99.90
35445;DHT22;21562;49.476;6.086;2023-04-01T19:01:34;10.00;99.90
35445;DHT22;21562;49.476;6.086;2023-04-01T19:04:27;9.90;99.90
35445;DHT22;21562;49.476;6.086;2023-04-01T19:06:58;10.10;99.90
35445;DHT22;21562;49.476;6.086;2023-04-01T19:09:48;10.10;99.90
35445;DHT22;21562;49.476;6.086;2023-04-01T19:18:08;10.10;99.90
35445;DHT22;21562;49.476;6.086;2023-04-01T19:20:45;10.10;99.90
35445;DHT22;21562;49.476;6.086;2023-04-01T19:23:25;10.10;99.90
35445;DHT22;21562;49.476;6.086;2023-04-01T19:25:57;10.10;99.90
35445;DHT22;21562;49.476;6.086;2023-04-01T19:37:31;10.00;99.90
35445;DHT22;21562;49.476;6.086;2023-04-01T19:40:36;9.80;99.90
35445;DHT22;21562;49.476;6.086;2023-04-01T19:45:48;10.30;99.90
35445;DHT22;21562;49.476;6.086;2023-04-01T19:48:43;10.20;99.90
35445;DHT22;21562;49.476;6.086;2023-04-01T19:59:47;9.90;99.90
35445;DHT22;21562;49.476;6.086;2023-04-01T20:02:31;9.90;99.90
35445;DHT22;21562;49.476;6.086;2023-04-01T20:05:16;9.90;99.90
35445;DHT22;21562;49.476;6.086;2023-04-01T20:07:52;10.00;99.90
35445;DHT22;21562;49.476;6.086;2023-04-01T20:16:22;10.10;99.90
35445;DHT22;21562;49.476;6.086;2023-04-01T20:19:02;10.00;99.90
35445;DHT22;21562;49.476;6.086;2023-04-01T20:21:47;10.10;99.90
35445;DHT22;21562;49.476;6.086;2023-04-01T20:26:42;9.90;99.90
35445;DHT22;21562;49.476;6.086;2023-04-01T20:40:41;10.10;99.90
35445;DHT22;21562;49.476;6.086;2023-04-01T20:46:19;10.20;99.90
35445;DHT22;21562;49.476;6.086;2023-04-01T20:51:38;9.90;99.90
35445;DHT22;21562;49.476;6.086;2023-04-01T20:57:25;9.90;99.90
35445;DHT22;21562;49.476;6.086;2023-04-01T21:13:15;10.10;99.90
35445;DHT22;21562;49.476;6.086;2023-04-01T21:15:57;10.10;99.90
35445;DHT22;21562;49.476;6.086;2023-04-01T21:21:26;10.30;99.90
35445;DHT22;21562;49.476;6.086;2023-04-01T21:23:58;10.20;99.90
35445;DHT22;21562;49.476;6.086;2023-04-01T21:26:37;10.40;99.90
35445;DHT22;21562;49.476;6.086;2023-04-01T21:32:14;10.10;99.90
35445;DHT22;21562;49.476;6.086;2023-04-01T21:37:44;9.80;99.90
35445;DHT22;21562;49.476;6.086;2023-04-01T22:09:38;10.10;99.90
35445;DHT22;21562;49.476;6.086;2023-04-01T22:12:13;9.80;99.90
35445;DHT22;21562;49.476;6.086;2023-04-01T22:20:21;9.50;99.90
35445;DHT22;21562;49.476;6.086;2023-04-01T22:23:12;9.50;99.90
35445;DHT22;21562;49.476;6.086;2023-04-01T22:28:19;9.40;99.90
35445;DHT22;21562;49.476;6.086;2023-04-01T22:30:52;9.50;99.90
35445;DHT22;21562;49.476;6.086;2023-04-01T22:47:19;9.50;99.90
35445;DHT22;21562;49.476;6.086;2023-04-01T22:50:03;9.50;99.90
35445;DHT22;21562;49.476;6.086;2023-04-01T22:55:10;9.70;99.90
35445;DHT22;21562;49.476;6.086;2023-04-01T22:57:47;9.50;99.90
35445;DHT22;21562;49.476;6.086;2023-04-01T23:03:14;9.50;99.90
35445;DHT22;21562;49.476;6.086;2023-04-01T23:05:57;9.60;99.90
35445;DHT22;21562;49.476;6.086;2023-04-01T23:14:43;9.40;99.90
35445;DHT22;21562;49.476;6.086;2023-04-01T23:17:41;9.50;99.90
35445;DHT22;21562;49.476;6.086;2023-04-01T23:26:00;9.50;99.90
35445;DHT22;21562;49.476;6.086;2023-04-01T23:28:46;9.40;99.90
35445;DHT22;21562;49.476;6.086;2023-04-01T23:34:00;9.40;99.90
35445;DHT22;21562;49.476;6.086;2023-04-01T23:36:27;9.40;99.90
35445;DHT22;21562;49.476;6.086;2023-04-01T23:38:53;9.50;99.90
35445;DHT22;21562;49.476;6.086;2023-04-01T23:41:28;9.40;99.90
35445;DHT22;21562;49.476;6.086;2023-04-01T23:44:05;9.40;99.90
35445;DHT22;21562;49.476;6.086;2023-04-01T23:46:33;9.60;99.90
35445;DHT22;21562;49.476;6.086;2023-04-01T23:49:01;9.60;99.90
35445;DHT22;21562;49.476;6.086;2023-04-01T23:51:35;9.60;99.90
35445;DHT22;21562;49.476;6.086;2023-04-01T23:54:09;9.40;99.90
35445;DHT22;21562;49.476;6.086;2023-04-01T23:56:43;9.40;99.90
35445;DHT22;21562;49.476;6.086;2023-04-01T23:59:38;9.40;99.90
